• Join FlightAware (Why Join?)
  • Login
  • US Flag 
06:29AM EDT


 

Airport Tracker/Info


-or-


 

Live Flight TrackerFlight Track Log ✈ TAM3555 ✈ 15-Sep-2013 ✈ SBBE / BEL - SBGR / GRU

Flight Track Log - Related Links

Times and Time Zones

All times are in EDT time to prevent confusion due to time zone crossing. See the TAM3555 flight status page for this flight to view local times or setup timezone preferences in your user account.

Time Position Orientation Groundspeed Altitude Reporting Facility
EDT Latitude Longitude Course Direction KTS MPH feet Rate Location/Type
03:34PM -7.3744 -47.9599 175° South  Level Estimated
03:35PM -7.4815 -47.9506 175° South  Level Estimated
03:36PM -7.5885 -47.9413 175° South  Level Estimated
03:37PM -7.6956 -47.9320 175° South  Level Estimated
03:38PM -7.8026 -47.9226 175° South  Level Estimated
03:39PM -7.9097 -47.9133 175° South  Level Estimated
03:40PM -8.0167 -47.9040 175° South  Level Estimated
03:41PM -8.1238 -47.8946 175° South  Level Estimated
03:42PM -8.2308 -47.8853 175° South  Level Estimated
03:43PM -8.3379 -47.8759 175° South  Level Estimated
03:44PM -8.4449 -47.8666 175° South  Level Estimated
03:45PM -8.5520 -47.8572 175° South  Level Estimated
03:46PM -8.6590 -47.8479 175° South  Level Estimated
03:47PM -8.7606 -47.8390 175° South  Level Estimated
03:48PM -8.8623 -47.8301 175° South  Level Estimated
03:49PM -8.9639 -47.8211 175° South  Level Estimated
03:50PM -9.0655 -47.8122 175° South  Level Estimated
03:51PM -9.1671 -47.8033 175° South  Level Estimated
03:52PM -9.2687 -47.7944 175° South  Level Estimated
03:53PM -9.3703 -47.7855 175° South  Level Estimated
03:54PM -9.4720 -47.7765 175° South  Level Estimated
03:55PM -9.5736 -47.7676 175° South  Level Estimated
03:56PM -9.6752 -47.7587 175° South  Level Estimated
03:57PM -9.7768 -47.7497 175° South  Level Estimated
03:58PM -9.8785 -47.7407 175° South  Level Estimated
03:59PM -9.9801 -47.7318 175° South  Level Estimated
04:00PM -10.0817 -47.7228 175° South  Level Estimated
04:01PM -10.1833 -47.7138 175° South  Level Estimated
04:02PM -10.2849 -47.7049 175° South  Level Estimated
04:03PM -10.3865 -47.6959 175° South  Level Estimated
04:04PM -10.4882 -47.6869 175° South  Level Estimated
04:05PM -10.5898 -47.6779 175° South  Level Estimated
04:06PM -10.6914 -47.6689 175° South  Level Estimated
04:07PM -10.7930 -47.6599 175° South  Level Estimated
04:08PM -10.8947 -47.6509 175° South  Level Estimated
04:09PM -10.9963 -47.6418 175° South  Level Estimated
04:10PM -11.0979 -47.6328 175° South  Level Estimated
04:11PM -11.1995 -47.6238 175° South  Level Estimated
04:12PM -11.3011 -47.6147 175° South  Level Estimated
04:13PM -11.4028 -47.6057 175° South  Level Estimated
04:14PM -11.5044 -47.5967 175° South  Level Estimated
04:15PM -11.6060 -47.5876 175° South  Level Estimated
04:16PM -11.7076 -47.5785 175° South  Level Estimated
04:17PM -11.8092 -47.5695 175° South  Level Estimated
04:18PM -11.9108 -47.5604 175° South  Level Estimated
04:19PM -12.0125 -47.5513 175° South  Level Estimated
04:20PM -12.1141 -47.5422 175° South  Level Estimated
04:21PM -12.2157 -47.5331 175° South  Level Estimated
04:22PM -12.3173 -47.5240 175° South  Level Estimated
04:23PM -12.4189 -47.5149 175° South  Level Estimated
04:24PM -12.5205 -47.5058 175° South  Level Estimated
04:25PM -12.6221 -47.4967 175° South  Level Estimated
04:26PM -12.7238 -47.4875 175° South  Level Estimated
04:27PM -12.8254 -47.4784 175° South  Level Estimated
04:28PM -12.9270 -47.4692 175° South  Level Estimated
04:29PM -13.0286 -47.4601 175° South  Level Estimated
04:30PM -13.1302 -47.4509 175° South  Level Estimated
04:31PM -13.2318 -47.4417 175° South  Level Estimated
04:32PM -13.3334 -47.4326 175° South  Level Estimated
04:33PM -13.4350 -47.4234 175° South  Level Estimated
04:34PM -13.5366 -47.4142 175° South  Level Estimated
04:35PM -13.6382 -47.4050 175° South  Level Estimated
04:36PM -13.7399 -47.3958 175° South  Level Estimated
04:37PM -13.8415 -47.3866 175° South  Level Estimated
04:38PM -13.9431 -47.3773 175° South  Level Estimated
04:39PM -14.0447 -47.3681 175° South  Level Estimated
04:40PM -14.1463 -47.3588 175° South  Level Estimated
04:41PM -14.2479 -47.3496 175° South  Level Estimated
04:42PM -14.3495 -47.3403 175° South  Level Estimated
04:43PM -14.4511 -47.3311 175° South  Level Estimated
04:44PM -14.5527 -47.3218 175° South  Level Estimated
04:45PM -14.6543 -47.3125 175° South  Level Estimated
04:46PM -14.7559 -47.3032 175° South  Level Estimated
04:47PM -14.8576 -47.2939 175° South  Level Estimated
04:48PM -14.9592 -47.2846 175° South  Level Estimated
04:49PM -15.0608 -47.2753 175° South  Level Estimated
04:50PM -15.1624 -47.2660 175° South  Level Estimated
04:51PM -15.2640 -47.2566 175° South  Level Estimated
04:52PM -15.3656 -47.2473 175° South  Level Estimated
04:53PM -15.4672 -47.2379 175° South  Level Estimated
04:54PM -15.5688 -47.2285 175° South  Level Estimated
04:55PM -15.6704 -47.2192 175° South  Level Estimated
04:56PM -15.7720 -47.2098 175° South  Level Estimated
04:57PM -15.8736 -47.2004 175° South  Level Estimated
04:58PM -15.9752 -47.1910 175° South  Level Estimated
04:59PM -16.0768 -47.1816 175° South  Level Estimated
05:00PM -16.1784 -47.1722 175° South  Level Estimated
05:01PM -16.2800 -47.1628 175° South  Level Estimated
05:02PM -16.3816 -47.1533 175° South  Level Estimated
05:03PM -16.4832 -47.1439 175° South  Level Estimated
05:04PM -16.5848 -47.1344 175° South  Level Estimated
05:05PM -16.6864 -47.1249 175° South  Level Estimated
05:06PM -16.7880 -47.1155 175° South  Level Estimated
05:07PM -16.8896 -47.1060 175° South  Level Estimated
05:08PM -16.9912 -47.0965 175° South  Level Estimated
05:09PM -17.0928 -47.0869 175° South  Level Estimated
05:10PM -17.1944 -47.0774 175° South  Level Estimated
05:11PM -17.2960 -47.0679 175° South  Level Estimated
05:12PM -17.3976 -47.0584 175° South  Level Estimated
05:13PM -17.4992 -47.0488 175° South  Level Estimated
05:14PM -17.6008 -47.0392 175° South  Level Estimated
05:15PM -17.7024 -47.0297 175° South  Level Estimated
05:16PM -17.8039 -47.0201 175° South  Level Estimated
05:17PM -17.9055 -47.0105 175° South  Level Estimated
05:18PM -18.0071 -47.0009 175° South  Level Estimated
05:19PM -18.1087 -46.9912 175° South  Level Estimated
05:20PM -18.2103 -46.9816 175° South  Level Estimated
05:21PM -18.3119 -46.9720 175° South  Level Estimated
05:22PM -18.4135 -46.9623 175° South  Level Estimated
05:23PM -18.5151 -46.9527 175° South  Level Estimated
05:24PM -18.6167 -46.9430 175° South  Level Estimated
05:25PM -18.7183 -46.9333 175° South  Level Estimated
05:26PM -18.8199 -46.9236 175° South  Level Estimated
05:27PM -18.9214 -46.9139 175° South  Level Estimated
05:28PM -19.0230 -46.9042 175° South  Level Estimated
05:29PM -19.1246 -46.8944 175° South  Level Estimated
05:30PM -19.2262 -46.8847 175° South  Level Estimated
05:31PM -19.3278 -46.8749 175° South  Level Estimated
05:32PM -19.4294 -46.8652 175° South  Level Estimated
05:33PM -19.5310 -46.8554 175° South  Level Estimated
05:34PM -19.6326 -46.8456 175° South  Level Estimated
05:35PM -19.7341 -46.8358 175° South  Level Estimated
05:36PM -19.8357 -46.8260 175° South  Level Estimated
05:37PM -19.9373 -46.8161 175° South  Level Estimated
05:38PM -20.0389 -46.8063 175° South  Level Estimated
05:39PM -20.1405 -46.7964 175° South  Level Estimated
05:40PM -20.2420 -46.7865 175° South  Level Estimated
05:41PM -20.3436 -46.7767 175° South  Level Estimated
05:42PM -20.4452 -46.7668 175° South  Level Estimated
05:43PM -20.5468 -46.7569 175° South  Level Estimated
05:44PM -20.6484 -46.7469 175° South  Level Estimated
05:45PM -20.7499 -46.7370 175° South  Level Estimated
05:46PM -20.8515 -46.7271 175° South  Level Estimated
05:47PM -20.9531 -46.7171 175° South  Level Estimated
05:48PM -21.0547 -46.7071 175° South  Level Estimated
05:49PM -21.1563 -46.6971 175° South  Level Estimated
05:50PM -21.2578 -46.6871 175° South  Level Estimated
05:51PM -21.3594 -46.6771 175° South  Level Estimated
05:52PM -21.4610 -46.6671 175° South  Level Estimated
05:53PM -21.5626 -46.6570 175° South  Level Estimated
05:54PM -21.6641 -46.6470 175° South  Level Estimated
05:55PM -21.7657 -46.6369 175° South  Level Estimated
05:56PM -21.8673 -46.6268 175° South  Level Estimated
05:57PM -21.9688 -46.6167 175° South  Level Estimated
05:58PM -22.0830 -46.6053 175° South  Level Estimated
05:59PM -22.1972 -46.5939 175° South  Level Estimated
06:00PM -22.3114 -46.5825 175° South  Level Estimated
06:01PM -22.4256 -46.5711 175° South  Level Estimated
06:02PM -22.5398 -46.5596 175° South  Level Estimated
06:03PM -22.6540 -46.5482 175° South  Level Estimated
06:04PM -22.7682 -46.5367 175° South  Level Estimated
06:05PM -22.8824 -46.5252 175° South  Level Estimated
06:06PM -22.9966 -46.5136 175° South  Level Estimated
06:07PM -23.1108 -46.5021 175° South  Level Estimated
06:08PM -23.2250 -46.4905 175° South  Level Estimated